Time;durP1;ratioP1;P1;durP2;ratioP2;P2;SDS_P1;SDS_P2;PMS_P1;PMS_P2;Temp;Humidity;BMP_temperature;BMP_pressure;BME280_temperature;BME280_humidity;BME280_pressure;Samples;Min_cycle;Max_cycle;Signal;HPM_P1;HPM_P2
2021/05/30 00:01:02;;;;;;;15.4;13.2;;;13.7;99.9;;;;;;;;;
2021/05/30 00:02:02;;;;;;;18.05;13.02;;;13.7;99.9;;;;;;;;;
2021/05/30 00:03:02;;;;;;;16.55;14.07;;;13.6;99.9;;;;;;;;;
2021/05/30 00:03:13;;;;;;;17.58;13.3;;;13.6;99.9;;;;;;;;;
2021/05/30 00:04:02;;;;;;;17.58;13.3;;;13.6;99.9;;;;;;;;;
2021/05/30 00:04:14;;;;;;;17.17;13.7;;;13.5;99.9;;;;;;;;;
2021/05/30 00:05:02;;;;;;;17.17;13.7;;;13.5;99.9;;;;;;;;;
2021/05/30 00:05:16;;;;;;;14.77;13;;;13.4;99.9;;;;;;;;;
2021/05/30 00:05:26;;;;;;;14.77;13;;;13.4;99.9;;;;;;;;;
2021/05/30 00:06:02;;;;;;;14.77;13;;;13.4;99.9;;;;;;;;;
2021/05/30 00:06:17;;;;;;;17.13;13.82;;;13.4;99.9;;;;;;;;;
2021/05/30 00:06:27;;;;;;;17.13;13.82;;;13.4;99.9;;;;;;;;;
2021/05/30 00:07:02;;;;;;;17.13;13.82;;;13.4;99.9;;;;;;;;;
2021/05/30 00:07:13;;;;;;;20.3;15;;;13.3;99.9;;;;;;;;;
2021/05/30 00:07:29;;;;;;;20.3;15;;;13.3;99.9;;;;;;;;;
2021/05/30 00:07:39;;;;;;;20.3;15;;;13.3;99.9;;;;;;;;;
2021/05/30 00:08:02;;;;;;;20.3;15;;;13.3;99.9;;;;;;;;;
2021/05/30 00:08:15;;;;;;;19.08;13.93;;;13.3;99.9;;;;;;;;;
2021/05/30 00:08:30;;;;;;;19.08;13.93;;;13.3;99.9;;;;;;;;;
2021/05/30 00:08:40;;;;;;;19.08;13.93;;;13.3;99.9;;;;;;;;;
2021/05/30 00:09:02;;;;;;;19.08;13.93;;;13.3;99.9;;;;;;;;;
2021/05/30 00:09:16;;;;;;;18.35;13.55;;;13.3;99.9;;;;;;;;;
2021/05/30 00:09:26;;;;;;;18.35;13.55;;;13.3;99.9;;;;;;;;;
2021/05/30 00:09:42;;;;;;;18.35;13.55;;;13.3;99.9;;;;;;;;;
2021/05/30 00:09:52;;;;;;;18.35;13.55;;;13.3;99.9;;;;;;;;;
2021/05/30 00:10:02;;;;;;;18.35;13.55;;;13.3;99.9;;;;;;;;;
2021/05/30 00:10:13;;;;;;;18.35;13.55;;;13.3;99.9;;;;;;;;;
2021/05/30 00:10:29;;;;;;;19.55;14.13;;;13.4;99.9;;;;;;;;;
2021/05/30 00:10:43;;;;;;;19.55;14.13;;;13.4;99.9;;;;;;;;;
2021/05/30 00:10:54;;;;;;;19.55;14.13;;;13.4;99.9;;;;;;;;;
2021/05/30 00:11:03;;;;;;;19.55;14.13;;;13.4;99.9;;;;;;;;;
2021/05/30 00:11:14;;;;;;;17.83;14.45;;;13.4;99.9;;;;;;;;;
2021/05/30 00:11:29;;;;;;;17.83;14.45;;;13.4;99.9;;;;;;;;;
2021/05/30 00:11:40;;;;;;;17.83;14.45;;;13.4;99.9;;;;;;;;;
2021/05/30 00:11:55;;;;;;;17.83;14.45;;;13.4;99.9;;;;;;;;;
2021/05/30 00:12:02;;;;;;;17.83;14.45;;;13.4;99.9;;;;;;;;;
2021/05/30 00:12:05;;;;;;;17.83;14.45;;;13.4;99.9;;;;;;;;;
2021/05/30 00:12:15;;;;;;;18.3;14.7;;;13.4;99.9;;;;;;;;;
2021/05/30 00:12:26;;;;;;;18.3;14.7;;;13.4;99.9;;;;;;;;;
2021/05/30 00:12:41;;;;;;;18.3;14.7;;;13.4;99.9;;;;;;;;;
2021/05/30 00:12:56;;;;;;;18.3;14.7;;;13.4;99.9;;;;;;;;;
2021/05/30 00:13:02;;;;;;;18.3;14.7;;;13.4;99.9;;;;;;;;;
2021/05/30 00:13:07;;;;;;;18.3;14.7;;;13.4;99.9;;;;;;;;;
2021/05/30 00:13:18;;;;;;;17.83;15.93;;;13.4;99.9;;;;;;;;;
2021/05/30 00:13:27;;;;;;;17.83;15.93;;;13.4;99.9;;;;;;;;;
2021/05/30 00:13:44;;;;;;;17.83;15.93;;;13.4;99.9;;;;;;;;;
2021/05/30 00:13:55;;;;;;;17.83;15.93;;;13.4;99.9;;;;;;;;;
2021/05/30 00:14:02;;;;;;;17.83;15.93;;;13.4;99.9;;;;;;;;;
2021/05/30 00:14:08;;;;;;;17.83;15.93;;;13.4;99.9;;;;;;;;;
2021/05/30 00:14:13;;;;;;;17.83;15.93;;;13.4;99.9;;;;;;;;;
2021/05/30 00:14:29;;;;;;;17.85;14.73;;;13.4;99.9;;;;;;;;;
2021/05/30 00:14:39;;;;;;;17.85;14.73;;;13.4;99.9;;;;;;;;;
2021/05/30 00:14:54;;;;;;;17.85;14.73;;;13.4;99.9;;;;;;;;;
2021/05/30 00:15:02;;;;;;;17.85;14.73;;;13.4;99.9;;;;;;;;;
2021/05/30 00:15:10;;;;;;;17.85;14.73;;;13.4;99.9;;;;;;;;;
2021/05/30 00:15:15;;;;;;;17.85;14.73;;;13.4;99.9;;;;;;;;;
2021/05/30 00:15:30;;;;;;;18.2;15.48;;;13.4;99.9;;;;;;;;;
2021/05/30 00:15:40;;;;;;;18.2;15.48;;;13.4;99.9;;;;;;;;;
2021/05/30 00:15:56;;;;;;;18.2;15.48;;;13.4;99.9;;;;;;;;;
2021/05/30 00:16:01;;;;;;;18.2;15.48;;;13.4;99.9;;;;;;;;;
2021/05/30 00:16:06;;;;;;;18.2;15.48;;;13.4;99.9;;;;;;;;;
2021/05/30 00:16:16;;;;;;;16.73;14.93;;;13.4;99.9;;;;;;;;;
2021/05/30 00:16:26;;;;;;;16.73;14.93;;;13.4;99.9;;;;;;;;;
2021/05/30 00:16:42;;;;;;;16.73;14.93;;;13.4;99.9;;;;;;;;;
2021/05/30 00:16:52;;;;;;;16.73;14.93;;;13.4;99.9;;;;;;;;;
2021/05/30 00:17:02;;;;;;;16.73;14.93;;;13.4;99.9;;;;;;;;;
2021/05/30 00:17:07;;;;;;;16.73;14.93;;;13.4;99.9;;;;;;;;;
2021/05/30 00:17:18;;;;;;;19.7;15.63;;;13.4;99.9;;;;;;;;;
2021/05/30 00:17:28;;;;;;;19.7;15.63;;;13.4;99.9;;;;;;;;;
2021/05/30 00:17:43;;;;;;;19.7;15.63;;;13.4;99.9;;;;;;;;;
2021/05/30 00:17:54;;;;;;;19.7;15.63;;;13.4;99.9;;;;;;;;;
2021/05/30 00:18:02;;;;;;;19.7;15.63;;;13.4;99.9;;;;;;;;;
2021/05/30 00:18:09;;;;;;;19.7;15.63;;;13.4;99.9;;;;;;;;;
2021/05/30 00:18:14;;;;;;;19.7;15.63;;;13.4;99.9;;;;;;;;;
2021/05/30 00:18:29;;;;;;;18.77;14.7;;;13.4;99.9;;;;;;;;;
2021/05/30 00:18:39;;;;;;;18.77;14.7;;;13.4;99.9;;;;;;;;;
2021/05/30 00:18:55;;;;;;;18.77;14.7;;;13.4;99.9;;;;;;;;;
2021/05/30 00:19:02;;;;;;;18.77;14.7;;;13.4;99.9;;;;;;;;;
2021/05/30 00:19:05;;;;;;;18.77;14.7;;;13.4;99.9;;;;;;;;;
2021/05/30 00:19:15;;;;;;;18.77;14.7;;;13.4;99.9;;;;;;;;;
2021/05/30 00:19:31;;;;;;;18.17;15.25;;;13.3;99.9;;;;;;;;;
2021/05/30 00:19:41;;;;;;;18.17;15.25;;;13.3;99.9;;;;;;;;;
2021/05/30 00:19:56;;;;;;;18.17;15.25;;;13.3;99.9;;;;;;;;;
2021/05/30 00:20:02;;;;;;;18.17;15.25;;;13.3;99.9;;;;;;;;;
2021/05/30 00:20:06;;;;;;;18.17;15.25;;;13.3;99.9;;;;;;;;;
2021/05/30 00:20:17;;;;;;;19.1;15.32;;;13.2;99.9;;;;;;;;;
2021/05/30 00:20:27;;;;;;;19.1;15.32;;;13.2;99.9;;;;;;;;;
2021/05/30 00:20:42;;;;;;;19.1;15.32;;;13.2;99.9;;;;;;;;;
2021/05/30 00:20:53;;;;;;;19.1;15.32;;;13.2;99.9;;;;;;;;;
2021/05/30 00:21:01;;;;;;;19.1;15.32;;;13.2;99.9;;;;;;;;;
2021/05/30 00:21:08;;;;;;;19.1;15.32;;;13.2;99.9;;;;;;;;;
2021/05/30 00:21:13;;;;;;;19.1;15.32;;;13.2;99.9;;;;;;;;;
2021/05/30 00:21:28;;;;;;;19.33;15.52;;;13.2;99.9;;;;;;;;;
2021/05/30 00:21:44;;;;;;;19.33;15.52;;;13.2;99.9;;;;;;;;;
2021/05/30 00:21:54;;;;;;;19.33;15.52;;;13.2;99.9;;;;;;;;;
2021/05/30 00:22:02;;;;;;;19.33;15.52;;;13.2;99.9;;;;;;;;;
2021/05/30 00:22:09;;;;;;;19.33;15.52;;;13.2;99.9;;;;;;;;;
2021/05/30 00:22:14;;;;;;;19.33;15.52;;;13.2;99.9;;;;;;;;;
2021/05/30 00:22:30;;;;;;;16.45;14.35;;;13.2;99.9;;;;;;;;;
2021/05/30 00:22:40;;;;;;;16.45;14.35;;;13.2;99.9;;;;;;;;;
2021/05/30 00:22:55;;;;;;;16.45;14.35;;;13.2;99.9;;;;;;;;;
2021/05/30 00:23:02;;;;;;;16.45;14.35;;;13.2;99.9;;;;;;;;;
2021/05/30 00:23:06;;;;;;;16.45;14.35;;;13.2;99.9;;;;;;;;;
2021/05/30 00:23:16;;;;;;;16.45;14.35;;;13.2;99.9;;;;;;;;;
2021/05/30 00:23:26;;;;;;;17.95;15.05;;;13.2;99.9;;;;;;;;;
2021/05/30 00:23:41;;;;;;;17.95;15.05;;;13.2;99.9;;;;;;;;;
2021/05/30 00:23:58;;;;;;;17.95;15.05;;;13.2;99.9;;;;;;;;;
2021/05/30 00:24:02;;;;;;;17.95;15.05;;;13.2;99.9;;;;;;;;;
2021/05/30 00:24:07;;;;;;;17.95;15.05;;;13.2;99.9;;;;;;;;;
2021/05/30 00:24:12;;;;;;;17.95;15.05;;;13.2;99.9;;;;;;;;;
2021/05/30 00:24:28;;;;;;;16.92;15.1;;;13.1;99.9;;;;;;;;;
2021/05/30 00:24:43;;;;;;;16.92;15.1;;;13.1;99.9;;;;;;;;;
2021/05/30 00:24:53;;;;;;;16.92;15.1;;;13.1;99.9;;;;;;;;;
2021/05/30 00:25:02;;;;;;;16.92;15.1;;;13.1;99.9;;;;;;;;;
2021/05/30 00:25:09;;;;;;;16.92;15.1;;;13.1;99.9;;;;;;;;;
2021/05/30 00:25:14;;;;;;;16.92;15.1;;;13.1;99.9;;;;;;;;;
2021/05/30 00:25:29;;;;;;;18.08;15.3;;;13.1;99.9;;;;;;;;;
2021/05/30 00:25:39;;;;;;;18.08;15.3;;;13.1;99.9;;;;;;;;;
2021/05/30 00:25:55;;;;;;;18.08;15.3;;;13.1;99.9;;;;;;;;;
2021/05/30 00:26:01;;;;;;;18.08;15.3;;;13.1;99.9;;;;;;;;;
2021/05/30 00:26:10;;;;;;;18.08;15.3;;;13.1;99.9;;;;;;;;;
2021/05/30 00:26:15;;;;;;;18.08;15.3;;;13.1;99.9;;;;;;;;;
2021/05/30 00:26:25;;;;;;;16.63;14.82;;;13.2;99.9;;;;;;;;;
2021/05/30 00:26:41;;;;;;;16.63;14.82;;;13.2;99.9;;;;;;;;;
2021/05/30 00:26:56;;;;;;;16.63;14.82;;;13.2;99.9;;;;;;;;;
2021/05/30 00:27:02;;;;;;;16.63;14.82;;;13.2;99.9;;;;;;;;;
2021/05/30 00:27:06;;;;;;;16.63;14.82;;;13.2;99.9;;;;;;;;;
2021/05/30 00:27:17;;;;;;;16.63;14.82;;;13.2;99.9;;;;;;;;;
2021/05/30 00:27:27;;;;;;;17.02;14.43;;;13.2;99.9;;;;;;;;;
2021/05/30 00:27:42;;;;;;;17.02;14.43;;;13.2;99.9;;;;;;;;;
2021/05/30 00:27:52;;;;;;;17.02;14.43;;;13.2;99.9;;;;;;;;;
2021/05/30 00:28:02;;;;;;;17.02;14.43;;;13.2;99.9;;;;;;;;;
2021/05/30 00:28:08;;;;;;;17.02;14.43;;;13.2;99.9;;;;;;;;;
2021/05/30 00:28:13;;;;;;;17.02;14.43;;;13.2;99.9;;;;;;;;;
2021/05/30 00:28:28;;;;;;;16.73;15.02;;;13.2;99.9;;;;;;;;;
2021/05/30 00:28:39;;;;;;;16.73;15.02;;;13.2;99.9;;;;;;;;;
2021/05/30 00:28:54;;;;;;;16.73;15.02;;;13.2;99.9;;;;;;;;;
2021/05/30 00:29:02;;;;;;;16.73;15.02;;;13.2;99.9;;;;;;;;;
2021/05/30 00:29:09;;;;;;;16.73;15.02;;;13.2;99.9;;;;;;;;;
2021/05/30 00:29:14;;;;;;;16.73;15.02;;;13.2;99.9;;;;;;;;;
2021/05/30 00:29:30;;;;;;;17.55;14.85;;;13.2;99.9;;;;;;;;;
2021/05/30 00:29:40;;;;;;;17.55;14.85;;;13.2;99.9;;;;;;;;;
2021/05/30 00:29:55;;;;;;;17.55;14.85;;;13.2;99.9;;;;;;;;;
2021/05/30 00:30:02;;;;;;;17.55;14.85;;;13.2;99.9;;;;;;;;;
2021/05/30 00:30:05;;;;;;;17.55;14.85;;;13.2;99.9;;;;;;;;;
2021/05/30 00:30:16;;;;;;;17.55;14.85;;;13.2;99.9;;;;;;;;;
2021/05/30 00:30:26;;;;;;;19.27;15.2;;;13.2;99.9;;;;;;;;;
2021/05/30 00:30:41;;;;;;;19.27;15.2;;;13.2;99.9;;;;;;;;;
2021/05/30 00:30:52;;;;;;;19.27;15.2;;;13.2;99.9;;;;;;;;;
2021/05/30 00:31:01;;;;;;;19.27;15.2;;;13.2;99.9;;;;;;;;;
2021/05/30 00:31:07;;;;;;;19.27;15.2;;;13.2;99.9;;;;;;;;;
2021/05/30 00:31:12;;;;;;;19.27;15.2;;;13.2;99.9;;;;;;;;;
2021/05/30 00:31:27;;;;;;;18.08;14.95;;;13.3;99.9;;;;;;;;;
2021/05/30 00:31:43;;;;;;;18.08;14.95;;;13.3;99.9;;;;;;;;;
2021/05/30 00:31:53;;;;;;;18.08;14.95;;;13.3;99.9;;;;;;;;;
2021/05/30 00:32:02;;;;;;;18.08;14.95;;;13.3;99.9;;;;;;;;;
2021/05/30 00:32:08;;;;;;;18.08;14.95;;;13.3;99.9;;;;;;;;;
2021/05/30 00:32:13;;;;;;;18.08;14.95;;;13.3;99.9;;;;;;;;;
2021/05/30 00:32:29;;;;;;;17.83;15.5;;;13.3;99.9;;;;;;;;;
2021/05/30 00:32:39;;;;;;;17.83;15.5;;;13.3;99.9;;;;;;;;;
2021/05/30 00:32:54;;;;;;;17.83;15.5;;;13.3;99.9;;;;;;;;;
2021/05/30 00:33:03;;;;;;;17.83;15.5;;;13.3;99.9;;;;;;;;;
2021/05/30 00:33:05;;;;;;;17.83;15.5;;;13.3;99.9;;;;;;;;;
2021/05/30 00:33:15;;;;;;;17.83;15.5;;;13.3;99.9;;;;;;;;;
2021/05/30 00:33:25;;;;;;;17.27;14.9;;;13.3;99.9;;;;;;;;;
2021/05/30 00:33:41;;;;;;;17.27;14.9;;;13.3;99.9;;;;;;;;;
2021/05/30 00:33:56;;;;;;;17.27;14.9;;;13.3;99.9;;;;;;;;;
2021/05/30 00:34:02;;;;;;;17.27;14.9;;;13.3;99.9;;;;;;;;;
2021/05/30 00:34:06;;;;;;;17.27;14.9;;;13.3;99.9;;;;;;;;;
2021/05/30 00:34:16;;;;;;;17.27;14.9;;;13.3;99.9;;;;;;;;;
2021/05/30 00:34:27;;;;;;;17.3;14.95;;;13.3;99.9;;;;;;;;;
2021/05/30 00:34:42;;;;;;;17.3;14.95;;;13.3;99.9;;;;;;;;;
2021/05/30 00:34:52;;;;;;;17.3;14.95;;;13.3;99.9;;;;;;;;;
2021/05/30 00:35:02;;;;;;;17.3;14.95;;;13.3;99.9;;;;;;;;;
2021/05/30 00:35:08;;;;;;;17.3;14.95;;;13.3;99.9;;;;;;;;;
2021/05/30 00:35:18;;;;;;;17.3;14.95;;;13.3;99.9;;;;;;;;;
2021/05/30 00:35:28;;;;;;;18.4;15.38;;;13.3;99.9;;;;;;;;;
2021/05/30 00:35:38;;;;;;;18.4;15.38;;;13.3;99.9;;;;;;;;;
2021/05/30 00:35:54;;;;;;;18.4;15.38;;;13.3;99.9;;;;;;;;;
2021/05/30 00:36:01;;;;;;;18.4;15.38;;;13.3;99.9;;;;;;;;;
2021/05/30 00:36:09;;;;;;;18.4;15.38;;;13.3;99.9;;;;;;;;;
2021/05/30 00:36:14;;;;;;;18.4;15.38;;;13.3;99.9;;;;;;;;;
2021/05/30 00:36:30;;;;;;;16.52;14.27;;;13.3;99.9;;;;;;;;;
2021/05/30 00:36:40;;;;;;;16.52;14.27;;;13.3;99.9;;;;;;;;;
2021/05/30 00:36:55;;;;;;;16.52;14.27;;;13.3;99.9;;;;;;;;;
2021/05/30 00:37:02;;;;;;;16.52;14.27;;;13.3;99.9;;;;;;;;;
2021/05/30 00:37:05;;;;;;;16.52;14.27;;;13.3;99.9;;;;;;;;;
2021/05/30 00:37:16;;;;;;;16.52;14.27;;;13.3;99.9;;;;;;;;;
2021/05/30 00:37:31;;;;;;;16.4;14.5;;;13.3;99.9;;;;;;;;;
2021/05/30 00:37:41;;;;;;;16.4;14.5;;;13.3;99.9;;;;;;;;;
2021/05/30 00:37:51;;;;;;;16.4;14.5;;;13.3;99.9;;;;;;;;;
2021/05/30 00:38:01;;;;;;;16.4;14.5;;;13.3;99.9;;;;;;;;;
2021/05/30 00:38:12;;;;;;;16.4;14.5;;;13.3;99.9;;;;;;;;;
2021/05/30 00:38:17;;;;;;;16.4;14.5;;;13.3;99.9;;;;;;;;;
2021/05/30 00:38:27;;;;;;;19.13;15.52;;;13.2;99.9;;;;;;;;;
2021/05/30 00:38:43;;;;;;;19.13;15.52;;;13.2;99.9;;;;;;;;;
2021/05/30 00:38:53;;;;;;;19.13;15.52;;;13.2;99.9;;;;;;;;;
2021/05/30 00:39:02;;;;;;;19.13;15.52;;;13.2;99.9;;;;;;;;;
2021/05/30 00:39:08;;;;;;;19.13;15.52;;;13.2;99.9;;;;;;;;;
2021/05/30 00:39:13;;;;;;;19.13;15.52;;;13.2;99.9;;;;;;;;;
2021/05/30 00:39:29;;;;;;;19.83;14.82;;;13.3;99.9;;;;;;;;;
2021/05/30 00:39:44;;;;;;;19.83;14.82;;;13.3;99.9;;;;;;;;;
2021/05/30 00:39:54;;;;;;;19.83;14.82;;;13.3;99.9;;;;;;;;;
2021/05/30 00:40:02;;;;;;;19.83;14.82;;;13.3;99.9;;;;;;;;;
2021/05/30 00:40:04;;;;;;;19.83;14.82;;;13.3;99.9;;;;;;;;;
2021/05/30 00:40:15;;;;;;;19.83;14.82;;;13.3;99.9;;;;;;;;;
2021/05/30 00:40:30;;;;;;;16.23;14.52;;;13.3;99.9;;;;;;;;;
2021/05/30 00:40:41;;;;;;;16.23;14.52;;;13.3;99.9;;;;;;;;;
2021/05/30 00:40:57;;;;;;;16.23;14.52;;;13.3;99.9;;;;;;;;;
2021/05/30 00:41:02;;;;;;;16.23;14.52;;;13.3;99.9;;;;;;;;;
2021/05/30 00:41:06;;;;;;;16.23;14.52;;;13.3;99.9;;;;;;;;;
2021/05/30 00:41:16;;;;;;;16.23;14.52;;;13.3;99.9;;;;;;;;;
2021/05/30 00:41:26;;;;;;;16.88;14.7;;;13.4;99.9;;;;;;;;;
2021/05/30 00:41:42;;;;;;;16.88;14.7;;;13.4;99.9;;;;;;;;;
2021/05/30 00:41:57;;;;;;;16.88;14.7;;;13.4;99.9;;;;;;;;;
2021/05/30 00:42:02;;;;;;;16.88;14.7;;;13.4;99.9;;;;;;;;;
2021/05/30 00:42:07;;;;;;;16.88;14.7;;;13.4;99.9;;;;;;;;;
2021/05/30 00:42:19;;;;;;;16.88;14.7;;;13.4;99.9;;;;;;;;;
2021/05/30 00:42:28;;;;;;;17.4;14.77;;;13.4;99.9;;;;;;;;;
2021/05/30 00:42:43;;;;;;;17.4;14.77;;;13.4;99.9;;;;;;;;;
2021/05/30 00:42:54;;;;;;;17.4;14.77;;;13.4;99.9;;;;;;;;;
2021/05/30 00:43:02;;;;;;;17.4;14.77;;;13.4;99.9;;;;;;;;;
2021/05/30 00:43:09;;;;;;;17.4;14.77;;;13.4;99.9;;;;;;;;;
2021/05/30 00:43:14;;;;;;;17.4;14.77;;;13.4;99.9;;;;;;;;;
2021/05/30 00:43:29;;;;;;;16.7;14.9;;;13.3;99.9;;;;;;;;;
2021/05/30 00:43:40;;;;;;;16.7;14.9;;;13.3;99.9;;;;;;;;;
2021/05/30 00:43:55;;;;;;;16.7;14.9;;;13.3;99.9;;;;;;;;;
2021/05/30 00:44:02;;;;;;;16.7;14.9;;;13.3;99.9;;;;;;;;;
2021/05/30 00:44:10;;;;;;;16.7;14.9;;;13.3;99.9;;;;;;;;;
2021/05/30 00:44:15;;;;;;;16.7;14.9;;;13.3;99.9;;;;;;;;;
2021/05/30 00:44:31;;;;;;;18.05;15.75;;;13.2;99.9;;;;;;;;;
2021/05/30 00:44:41;;;;;;;18.05;15.75;;;13.2;99.9;;;;;;;;;
2021/05/30 00:44:56;;;;;;;18.05;15.75;;;13.2;99.9;;;;;;;;;
2021/05/30 00:45:02;;;;;;;18.05;15.75;;;13.2;99.9;;;;;;;;;
2021/05/30 00:45:07;;;;;;;18.05;15.75;;;13.2;99.9;;;;;;;;;
2021/05/30 00:45:18;;;;;;;18.05;15.75;;;13.2;99.9;;;;;;;;;
2021/05/30 00:45:28;;;;;;;17.95;15.13;;;13.1;99.9;;;;;;;;;
2021/05/30 00:45:44;;;;;;;17.95;15.13;;;13.1;99.9;;;;;;;;;
2021/05/30 00:45:58;;;;;;;17.95;15.13;;;13.1;99.9;;;;;;;;;
2021/05/30 00:46:02;;;;;;;17.95;15.13;;;13.1;99.9;;;;;;;;;
2021/05/30 00:46:08;;;;;;;17.95;15.13;;;13.1;99.9;;;;;;;;;
2021/05/30 00:46:34;;;;;;;16.7;14.7;;;13.1;99.9;;;;;;;;;
2021/05/30 00:46:34;;;;;;;16.7;14.7;;;13.1;99.9;;;;;;;;;
2021/05/30 00:46:44;;;;;;;16.7;14.7;;;13.1;99.9;;;;;;;;;
2021/05/30 00:46:54;;;;;;;16.7;14.7;;;13.1;99.9;;;;;;;;;
2021/05/30 00:47:02;;;;;;;16.7;14.7;;;13.1;99.9;;;;;;;;;
2021/05/30 00:47:09;;;;;;;16.7;14.7;;;13.1;99.9;;;;;;;;;
2021/05/30 00:47:15;;;;;;;16.7;14.7;;;13.1;99.9;;;;;;;;;
2021/05/30 00:47:30;;;;;;;18.63;15.68;;;13.1;99.9;;;;;;;;;
2021/05/30 00:47:40;;;;;;;18.63;15.68;;;13.1;99.9;;;;;;;;;
2021/05/30 00:47:56;;;;;;;18.63;15.68;;;13.1;99.9;;;;;;;;;
2021/05/30 00:48:01;;;;;;;18.63;15.68;;;13.1;99.9;;;;;;;;;
2021/05/30 00:48:11;;;;;;;18.63;15.68;;;13.1;99.9;;;;;;;;;
2021/05/30 00:48:16;;;;;;;18.63;15.68;;;13.1;99.9;;;;;;;;;
2021/05/30 00:48:47;;;;;;;16.25;14.38;;;13.1;99.9;;;;;;;;;
2021/05/30 00:48:47;;;;;;;16.25;14.38;;;13.1;99.9;;;;;;;;;
2021/05/30 00:48:57;;;;;;;16.25;14.38;;;13.1;99.9;;;;;;;;;
2021/05/30 00:49:02;;;;;;;16.25;14.38;;;13.1;99.9;;;;;;;;;
2021/05/30 00:49:07;;;;;;;16.25;14.38;;;13.1;99.9;;;;;;;;;
2021/05/30 00:49:18;;;;;;;16.25;14.38;;;13.1;99.9;;;;;;;;;
2021/05/30 00:49:28;;;;;;;18.77;14.93;;;13.1;99.9;;;;;;;;;
2021/05/30 00:49:43;;;;;;;18.77;14.93;;;13.1;99.9;;;;;;;;;
2021/05/30 00:49:53;;;;;;;18.77;14.93;;;13.1;99.9;;;;;;;;;
2021/05/30 00:50:02;;;;;;;18.77;14.93;;;13.1;99.9;;;;;;;;;
2021/05/30 00:50:09;;;;;;;18.77;14.93;;;13.1;99.9;;;;;;;;;
2021/05/30 00:50:14;;;;;;;18.77;14.93;;;13.1;99.9;;;;;;;;;
2021/05/30 00:50:29;;;;;;;17.15;14.88;;;13.1;99.9;;;;;;;;;
2021/05/30 00:51:00;;;;;;;17.15;14.88;;;13.1;99.9;;;;;;;;;
2021/05/30 00:51:00;;;;;;;17.15;14.88;;;13.1;99.9;;;;;;;;;
2021/05/30 00:51:02;;;;;;;17.15;14.88;;;13.1;99.9;;;;;;;;;
2021/05/30 00:51:10;;;;;;;17.15;14.88;;;13.1;99.9;;;;;;;;;
2021/05/30 00:51:15;;;;;;;17.15;14.88;;;13.1;99.9;;;;;;;;;
2021/05/30 00:51:31;;;;;;;15.48;13.7;;;13.1;99.9;;;;;;;;;
2021/05/30 00:51:41;;;;;;;15.48;13.7;;;13.1;99.9;;;;;;;;;
2021/05/30 00:51:56;;;;;;;15.48;13.7;;;13.1;99.9;;;;;;;;;
2021/05/30 00:52:02;;;;;;;15.48;13.7;;;13.1;99.9;;;;;;;;;
2021/05/30 00:52:06;;;;;;;15.48;13.7;;;13.1;99.9;;;;;;;;;
2021/05/30 00:52:17;;;;;;;15.48;13.7;;;13.1;99.9;;;;;;;;;
2021/05/30 00:52:27;;;;;;;16.95;13.98;;;13;99.9;;;;;;;;;
2021/05/30 00:52:42;;;;;;;16.95;13.98;;;13;99.9;;;;;;;;;
2021/05/30 00:53:02;;;;;;;16.95;13.98;;;13;99.9;;;;;;;;;
2021/05/30 00:53:13;;;;;;;16.95;13.98;;;13;99.9;;;;;;;;;
2021/05/30 00:53:13;;;;;;;16.95;13.98;;;13;99.9;;;;;;;;;
2021/05/30 00:53:13;;;;;;;16.95;13.98;;;13;99.9;;;;;;;;;
2021/05/30 00:53:28;;;;;;;17.65;15.6;;;13;99.9;;;;;;;;;
2021/05/30 00:53:44;;;;;;;17.65;15.6;;;13;99.9;;;;;;;;;
2021/05/30 00:53:54;;;;;;;17.65;15.6;;;13;99.9;;;;;;;;;
2021/05/30 00:54:02;;;;;;;17.65;15.6;;;13;99.9;;;;;;;;;
2021/05/30 00:54:09;;;;;;;17.65;15.6;;;13;99.9;;;;;;;;;
2021/05/30 00:54:15;;;;;;;17.65;15.6;;;13;99.9;;;;;;;;;
2021/05/30 00:54:30;;;;;;;16.33;13.55;;;13;99.9;;;;;;;;;
2021/05/30 00:54:40;;;;;;;16.33;13.55;;;13;99.9;;;;;;;;;
2021/05/30 00:54:55;;;;;;;16.33;13.55;;;13;99.9;;;;;;;;;
2021/05/30 00:55:02;;;;;;;16.33;13.55;;;13;99.9;;;;;;;;;
2021/05/30 00:55:16;;;;;;;16.33;13.55;;;13;99.9;;;;;;;;;
2021/05/30 00:55:26;;;;;;;16.33;13.55;;;13;99.9;;;;;;;;;
2021/05/30 00:55:26;;;;;;;16.33;13.55;;;13;99.9;;;;;;;;;
2021/05/30 00:55:41;;;;;;;17.3;15.25;;;13;99.9;;;;;;;;;
2021/05/30 00:55:57;;;;;;;17.3;15.25;;;13;99.9;;;;;;;;;
2021/05/30 00:56:02;;;;;;;17.3;15.25;;;13;99.9;;;;;;;;;
2021/05/30 00:56:07;;;;;;;17.3;15.25;;;13;99.9;;;;;;;;;
2021/05/30 00:56:12;;;;;;;17.3;15.25;;;13;99.9;;;;;;;;;
2021/05/30 00:56:28;;;;;;;16.67;14.48;;;13;99.9;;;;;;;;;
2021/05/30 00:56:43;;;;;;;16.67;14.48;;;13;99.9;;;;;;;;;
2021/05/30 00:56:53;;;;;;;16.67;14.48;;;13;99.9;;;;;;;;;
2021/05/30 00:57:02;;;;;;;16.67;14.48;;;13;99.9;;;;;;;;;
2021/05/30 00:57:09;;;;;;;16.67;14.48;;;13;99.9;;;;;;;;;
2021/05/30 00:57:14;;;;;;;16.67;14.48;;;13;99.9;;;;;;;;;
2021/05/30 00:57:29;;;;;;;17.3;14.43;;;12.9;99.9;;;;;;;;;
2021/05/30 00:57:39;;;;;;;17.3;14.43;;;12.9;99.9;;;;;;;;;
2021/05/30 00:57:55;;;;;;;17.3;14.43;;;12.9;99.9;;;;;;;;;
2021/05/30 00:58:02;;;;;;;17.3;14.43;;;12.9;99.9;;;;;;;;;
2021/05/30 00:58:10;;;;;;;17.3;14.43;;;12.9;99.9;;;;;;;;;
2021/05/30 00:58:15;;;;;;;17.3;14.43;;;12.9;99.9;;;;;;;;;
2021/05/30 00:58:26;;;;;;;17.3;14.43;;;12.9;99.9;;;;;;;;;
2021/05/30 00:58:41;;;;;;;16.4;14.8;;;12.9;99.9;;;;;;;;;
2021/05/30 00:58:56;;;;;;;16.4;14.8;;;12.9;99.9;;;;;;;;;
2021/05/30 00:59:02;;;;;;;16.4;14.8;;;12.9;99.9;;;;;;;;;
2021/05/30 00:59:06;;;;;;;16.4;14.8;;;12.9;99.9;;;;;;;;;
2021/05/30 00:59:17;;;;;;;16.4;14.8;;;12.9;99.9;;;;;;;;;
2021/05/30 00:59:27;;;;;;;16.4;14.8;;;12.9;99.9;;;;;;;;;
2021/05/30 00:59:42;;;;;;;19.13;14.27;;;12.9;99.9;;;;;;;;;
2021/05/30 00:59:52;;;;;;;19.13;14.27;;;12.9;99.9;;;;;;;;;
2021/05/30 01:00:02;;;;;;;19.13;14.27;;;12.9;99.9;;;;;;;;;
2021/05/30 01:00:08;;;;;;;19.13;14.27;;;12.9;99.9;;;;;;;;;
2021/05/30 01:00:13;;;;;;;19.13;14.27;;;12.9;99.9;;;;;;;;;
2021/05/30 01:00:28;;;;;;;19.13;14.27;;;12.9;99.9;;;;;;;;;
2021/05/30 01:00:38;;;;;;;17.55;14.98;;;13;99.9;;;;;;;;;
2021/05/30 01:00:54;;;;;;;17.55;14.98;;;13;99.9;;;;;;;;;
2021/05/30 01:01:02;;;;;;;17.55;14.98;;;13;99.9;;;;;;;;;
2021/05/30 01:01:09;;;;;;;17.55;14.98;;;13;99.9;;;;;;;;;
2021/05/30 01:01:14;;;;;;;17.55;14.98;;;13;99.9;;;;;;;;;
2021/05/30 01:01:30;;;;;;;17.98;15.45;;;13.1;99.9;;;;;;;;;
2021/05/30 01:01:40;;;;;;;17.98;15.45;;;13.1;99.9;;;;;;;;;
2021/05/30 01:01:55;;;;;;;17.98;15.45;;;13.1;99.9;;;;;;;;;
2021/05/30 01:02:02;;;;;;;17.98;15.45;;;13.1;99.9;;;;;;;;;
2021/05/30 01:02:05;;;;;;;17.98;15.45;;;13.1;99.9;;;;;;;;;
2021/05/30 01:02:16;;;;;;;17.98;15.45;;;13.1;99.9;;;;;;;;;
2021/05/30 01:02:26;;;;;;;17.98;15.45;;;13.1;99.9;;;;;;;;;
2021/05/30 01:02:41;;;;;;;19.02;15.7;;;13.2;99.9;;;;;;;;;
2021/05/30 01:02:52;;;;;;;19.02;15.7;;;13.2;99.9;;;;;;;;;
2021/05/30 01:03:01;;;;;;;19.02;15.7;;;13.2;99.9;;;;;;;;;
2021/05/30 01:03:07;;;;;;;19.02;15.7;;;13.2;99.9;;;;;;;;;
2021/05/30 01:03:12;;;;;;;19.02;15.7;;;13.2;99.9;;;;;;;;;
2021/05/30 01:03:27;;;;;;;19.02;15.7;;;13.2;99.9;;;;;;;;;
2021/05/30 01:03:43;;;;;;;18.02;14.8;;;13.2;99.9;;;;;;;;;
2021/05/30 01:03:53;;;;;;;18.02;14.8;;;13.2;99.9;;;;;;;;;
2021/05/30 01:04:02;;;;;;;18.02;14.8;;;13.2;99.9;;;;;;;;;
2021/05/30 01:04:08;;;;;;;18.02;14.8;;;13.2;99.9;;;;;;;;;
2021/05/30 01:04:13;;;;;;;18.02;14.8;;;13.2;99.9;;;;;;;;;
2021/05/30 01:04:29;;;;;;;18.02;14.8;;;13.2;99.9;;;;;;;;;
2021/05/30 01:04:39;;;;;;;16.2;14.52;;;13.2;99.9;;;;;;;;;
2021/05/30 01:04:54;;;;;;;16.2;14.52;;;13.2;99.9;;;;;;;;;
2021/05/30 01:05:02;;;;;;;16.2;14.52;;;13.2;99.9;;;;;;;;;
2021/05/30 01:05:05;;;;;;;16.2;14.52;;;13.2;99.9;;;;;;;;;
2021/05/30 01:05:15;;;;;;;16.2;14.52;;;13.2;99.9;;;;;;;;;
2021/05/30 01:05:25;;;;;;;16.2;14.52;;;13.2;99.9;;;;;;;;;
2021/05/30 01:05:41;;;;;;;16.92;14;;;13.2;99.9;;;;;;;;;
2021/05/30 01:05:56;;;;;;;16.92;14;;;13.2;99.9;;;;;;;;;
2021/05/30 01:06:02;;;;;;;16.92;14;;;13.2;99.9;;;;;;;;;
2021/05/30 01:06:08;;;;;;;16.92;14;;;13.2;99.9;;;;;;;;;
2021/05/30 01:06:16;;;;;;;16.92;14;;;13.2;99.9;;;;;;;;;
2021/05/30 01:06:27;;;;;;;16.92;14;;;13.2;99.9;;;;;;;;;
2021/05/30 01:06:42;;;;;;;16.27;14.57;;;13.2;99.9;;;;;;;;;
2021/05/30 01:06:55;;;;;;;16.27;14.57;;;13.2;99.9;;;;;;;;;
2021/05/30 01:07:02;;;;;;;16.27;14.57;;;13.2;99.9;;;;;;;;;
2021/05/30 01:07:08;;;;;;;16.27;14.57;;;13.2;99.9;;;;;;;;;
2021/05/30 01:07:18;;;;;;;16.27;14.57;;;13.2;99.9;;;;;;;;;
2021/05/30 01:07:28;;;;;;;16.27;14.57;;;13.2;99.9;;;;;;;;;
2021/05/30 01:07:41;;;;;;;17.35;14.73;;;13.2;99.9;;;;;;;;;
2021/05/30 01:07:54;;;;;;;17.35;14.73;;;13.2;99.9;;;;;;;;;
2021/05/30 01:08:01;;;;;;;17.35;14.73;;;13.2;99.9;;;;;;;;;
2021/05/30 01:08:10;;;;;;;17.35;14.73;;;13.2;99.9;;;;;;;;;
2021/05/30 01:08:15;;;;;;;17.35;14.73;;;13.2;99.9;;;;;;;;;
2021/05/30 01:08:29;;;;;;;17.35;14.73;;;13.2;99.9;;;;;;;;;
2021/05/30 01:08:40;;;;;;;15.1;13.5;;;13.2;99.9;;;;;;;;;
2021/05/30 01:08:55;;;;;;;15.1;13.5;;;13.2;99.9;;;;;;;;;
2021/05/30 01:09:03;;;;;;;15.1;13.5;;;13.2;99.9;;;;;;;;;
2021/05/30 01:09:06;;;;;;;15.1;13.5;;;13.2;99.9;;;;;;;;;
2021/05/30 01:09:16;;;;;;;15.1;13.5;;;13.2;99.9;;;;;;;;;
2021/05/30 01:09:33;;;;;;;18.15;14.35;;;13.2;99.9;;;;;;;;;
2021/05/30 01:09:41;;;;;;;18.15;14.35;;;13.2;99.9;;;;;;;;;
2021/05/30 01:09:52;;;;;;;18.15;14.35;;;13.2;99.9;;;;;;;;;
2021/05/30 01:10:01;;;;;;;18.15;14.35;;;13.2;99.9;;;;;;;;;
2021/05/30 01:10:07;;;;;;;18.15;14.35;;;13.2;99.9;;;;;;;;;
2021/05/30 01:10:12;;;;;;;18.15;14.35;;;13.2;99.9;;;;;;;;;
2021/05/30 01:10:29;;;;;;;18.15;14.35;;;13.2;99.9;;;;;;;;;
2021/05/30 01:10:43;;;;;;;17.17;14.65;;;13.2;99.9;;;;;;;;;
2021/05/30 01:10:53;;;;;;;17.17;14.65;;;13.2;99.9;;;;;;;;;
2021/05/30 01:11:02;;;;;;;17.17;14.65;;;13.2;99.9;;;;;;;;;
2021/05/30 01:11:08;;;;;;;17.17;14.65;;;13.2;99.9;;;;;;;;;
2021/05/30 01:11:19;;;;;;;17.17;14.65;;;13.2;99.9;;;;;;;;;
2021/05/30 01:11:29;;;;;;;17.17;14.65;;;13.2;99.9;;;;;;;;;
2021/05/30 01:11:44;;;;;;;18.33;14.8;;;13.2;99.9;;;;;;;;;
2021/05/30 01:11:54;;;;;;;18.33;14.8;;;13.2;99.9;;;;;;;;;
2021/05/30 01:12:02;;;;;;;18.33;14.8;;;13.2;99.9;;;;;;;;;
2021/05/30 01:12:05;;;;;;;18.33;14.8;;;13.2;99.9;;;;;;;;;
2021/05/30 01:12:25;;;;;;;18.33;14.8;;;13.2;99.9;;;;;;;;;
2021/05/30 01:12:30;;;;;;;18.33;14.8;;;13.2;99.9;;;;;;;;;
2021/05/30 01:12:41;;;;;;;17.8;14.3;;;13.2;99.9;;;;;;;;;
2021/05/30 01:12:56;;;;;;;17.8;14.3;;;13.2;99.9;;;;;;;;;
2021/05/30 01:13:02;;;;;;;17.8;14.3;;;13.2;99.9;;;;;;;;;
2021/05/30 01:13:06;;;;;;;17.8;14.3;;;13.2;99.9;;;;;;;;;
2021/05/30 01:13:16;;;;;;;17.8;14.3;;;13.2;99.9;;;;;;;;;
2021/05/30 01:13:32;;;;;;;17.8;14.3;;;13.2;99.9;;;;;;;;;
2021/05/30 01:13:42;;;;;;;16.52;14.05;;;13.2;99.9;;;;;;;;;
2021/05/30 01:13:58;;;;;;;16.52;14.05;;;13.2;99.9;;;;;;;;;
2021/05/30 01:14:02;;;;;;;16.52;14.05;;;13.2;99.9;;;;;;;;;